Time;durP1;ratioP1;P1;durP2;ratioP2;P2;SDS_P1;SDS_P2;PMS_P1;PMS_P2;Temp;Humidity;BMP_temperature;BMP_pressure;BME280_temperature;BME280_humidity;BME280_pressure;Samples;Min_cycle;Max_cycle;Signal;HPM_P1;HPM_P2
2022/08/04 00:01:40;;;;;;;5.95;3.03;;;;;;;24.43;51.10;101337.75;5165674;28;21008;-56
2022/08/04 00:04:18;;;;;;;8.48;3.60;;;;;;;24.41;51.28;101337.16;5151963;28;20923;-54
2022/08/04 00:07:05;;;;;;;5.60;2.78;;;;;;;24.37;51.26;101337.63;5165986;28;20519;-55
2022/08/04 00:09:44;;;;;;;8.52;2.88;;;;;;;24.35;51.46;101328.91;5164813;28;20421;-54
2022/08/04 00:12:19;;;;;;;5.75;2.53;;;;;;;24.33;51.53;101331.00;5166728;28;20413;-53
2022/08/04 00:14:56;;;;;;;5.30;3.08;;;;;;;24.30;51.57;101336.88;5154001;28;20416;-54
2022/08/04 00:17:50;;;;;;;8.48;3.38;;;;;;;24.27;51.67;101334.63;5163379;28;20574;-54
2022/08/04 00:20:28;;;;;;;5.13;3.00;;;;;;;24.23;51.76;101322.66;5164803;28;20837;-55
2022/08/04 00:23:03;;;;;;;7.40;3.72;;;;;;;24.22;51.92;101334.50;5147809;28;20426;-54
2022/08/04 00:25:40;;;;;;;7.57;3.35;;;;;;;24.20;52.15;101336.59;5168337;28;20460;-56
2022/08/04 00:28:13;;;;;;;11.23;3.30;;;;;;;24.17;51.99;101323.56;5160412;28;20423;-54
2022/08/04 00:30:46;;;;;;;8.05;3.70;;;;;;;24.16;52.14;101324.63;5162492;28;20709;-54
2022/08/04 00:33:21;;;;;;;10.02;3.42;;;;;;;24.14;52.13;101322.13;5155872;28;20419;-54
2022/08/04 00:35:55;;;;;;;10.35;3.63;;;;;;;24.10;52.36;101309.34;5165453;28;20421;-55
2022/08/04 00:38:29;;;;;;;9.20;3.30;;;;;;;24.09;52.46;101310.38;5164197;28;20893;-55
2022/08/04 00:41:12;;;;;;;8.65;3.25;;;;;;;24.07;52.36;101317.91;5163840;28;20433;-54
2022/08/04 00:47:23;;;;;;;5.13;2.83;;;;;;;24.01;52.49;101313.41;5157818;28;20401;-56
2022/08/04 00:50:13;;;;;;;7.33;3.00;;;;;;;23.99;52.51;101318.19;5150686;28;20780;-57
2022/08/04 00:53:08;;;;;;;5.93;2.95;;;;;;;23.93;52.72;101315.34;5148928;28;20426;-57
2022/08/04 00:56:12;;;;;;;7.05;3.00;;;;;;;23.91;52.65;101312.06;5162757;28;20751;-51
2022/08/04 00:58:59;;;;;;;5.63;2.97;;;;;;;23.89;52.75;101319.56;5154455;28;20837;-55
2022/08/04 01:01:56;;;;;;;8.57;2.83;;;;;;;23.89;52.77;101318.75;5167835;28;20403;-49
2022/08/04 01:04:49;;;;;;;6.63;3.08;;;;;;;23.88;52.92;101315.22;5163321;28;20421;-55
2022/08/04 01:07:55;;;;;;;7.47;3.03;;;;;;;23.90;52.89;101313.09;5161295;28;20842;-55
2022/08/04 01:10:40;;;;;;;5.87;2.73;;;;;;;23.89;52.93;101314.16;5161658;28;20417;-56
2022/08/04 01:13:37;;;;;;;5.03;2.40;;;;;;;23.91;52.80;101312.06;5148418;28;20940;-57
2022/08/04 01:16:10;;;;;;;6.32;3.05;;;;;;;23.91;52.92;101313.94;5158756;28;20415;-55
2022/08/04 01:18:52;;;;;;;8.30;3.15;;;;;;;23.89;52.90;101306.06;5151699;28;20741;-53
2022/08/04 01:22:18;;;;;;;3.47;2.08;;;;;;;23.86;53.00;101309.22;5160486;28;20887;-54
2022/08/04 01:25:13;;;;;;;7.65;2.80;;;;;;;23.86;53.22;101306.53;5153872;28;20434;-55
2022/08/04 01:28:11;;;;;;;8.20;2.43;;;;;;;23.79;53.01;101292.31;5155073;28;20867;-56
2022/08/04 01:30:48;;;;;;;7.57;2.95;;;;;;;23.85;53.27;101309.47;5161561;28;20427;-56
2022/08/04 01:33:24;;;;;;;11.90;3.40;;;;;;;23.84;53.27;101305.09;5153061;28;20689;-55
2022/08/04 01:36:03;;;;;;;5.80;2.75;;;;;;;23.83;53.25;101304.28;5163264;28;20482;-56
2022/08/04 01:38:39;;;;;;;7.53;3.53;;;;;;;23.82;53.34;101312.63;5168068;28;20434;-60
2022/08/04 01:41:17;;;;;;;6.60;2.80;;;;;;;23.68;53.49;101290.31;5160604;28;20418;-56
2022/08/04 01:43:54;;;;;;;7.45;3.13;;;;;;;23.81;53.50;101300.16;5166279;28;21009;-55
2022/08/04 01:46:33;;;;;;;9.88;3.10;;;;;;;23.81;53.56;101305.56;5163715;28;20414;-48
2022/08/04 01:49:07;;;;;;;9.30;2.95;;;;;;;23.78;53.68;101298.72;5164756;28;20419;-56
2022/08/04 01:51:40;;;;;;;9.43;2.90;;;;;;;23.79;53.85;101297.69;5166224;28;20742;-56
2022/08/04 01:54:15;;;;;;;10.30;3.50;;;;;;;23.78;53.54;101290.63;5162120;28;20864;-56
2022/08/04 01:56:49;;;;;;;8.38;2.97;;;;;;;23.79;53.61;101292.31;5160068;28;21174;-54
2022/08/04 01:59:22;;;;;;;8.10;3.15;;;;;;;23.78;53.70;101293.34;5161448;28;20881;-56
2022/08/04 02:01:56;;;;;;;7.97;3.45;;;;;;;23.78;53.81;101285.25;5169349;28;20407;-57
2022/08/04 02:04:28;;;;;;;7.78;2.88;;;;;;;23.77;53.80;101286.31;5156733;28;20422;-55
2022/08/04 02:07:16;;;;;;;8.13;3.55;;;;;;;23.75;53.78;101280.31;5167209;28;20430;-50
2022/08/04 02:10:03;;;;;;;9.55;3.33;;;;;;;23.76;53.94;101292.75;5167398;28;20476;-55
2022/08/04 02:12:55;;;;;;;9.07;3.58;;;;;;;23.75;53.94;101285.69;5162066;28;20456;-56
2022/08/04 02:15:31;;;;;;;10.68;3.30;;;;;;;23.74;53.98;101284.06;5165265;28;20872;-57
2022/08/04 02:18:11;;;;;;;7.30;2.35;;;;;;;23.66;54.03;101276.22;5160837;28;20466;-57
2022/08/04 02:20:49;;;;;;;10.20;3.17;;;;;;;23.73;53.88;101273.50;5174775;28;20740;-55
2022/08/04 02:23:33;;;;;;;10.43;3.05;;;;;;;23.72;54.02;101275.34;5169728;28;20734;-51
2022/08/04 02:26:11;;;;;;;7.97;2.85;;;;;;;23.71;53.96;101279.13;5164942;28;20731;-55
2022/08/04 02:28:54;;;;;;;6.25;3.08;;;;;;;23.70;54.06;101278.28;5162656;28;20776;-52
2022/08/04 02:31:34;;;;;;;7.38;2.88;;;;;;;23.70;53.94;101274.78;5164978;28;20811;-56
2022/08/04 02:34:16;;;;;;;13.47;3.37;;;;;;;23.68;54.11;101268.75;5156217;28;20778;-56
2022/08/04 02:36:50;;;;;;;6.88;2.78;;;;;;;23.66;54.26;101277.09;5166244;28;20421;-55
2022/08/04 02:39:24;;;;;;;6.60;2.92;;;;;;;23.66;54.26;101276.22;5165250;28;20439;-46
2022/08/04 02:41:58;;;;;;;10.77;3.40;;;;;;;23.65;54.18;101275.41;5168270;28;20797;-55
2022/08/04 02:44:32;;;;;;;11.60;3.17;;;;;;;23.64;54.40;101267.56;5164304;28;21003;-56
2022/08/04 02:47:06;;;;;;;10.23;3.47;;;;;;;23.64;54.35;101272.97;5159555;28;20862;-54
2022/08/04 02:49:42;;;;;;;8.45;3.90;;;;;;;23.65;54.46;101274.59;5155698;28;20733;-57
2022/08/04 02:52:16;;;;;;;10.40;3.20;;;;;;;23.64;54.45;101265.69;5150039;28;20885;-55
2022/08/04 02:54:54;;;;;;;10.65;3.78;;;;;;;23.64;54.63;101264.88;5167189;28;20739;-57
2022/08/04 02:57:31;;;;;;;11.00;3.75;;;;;;;23.62;54.65;101261.56;5156225;28;20493;-55
2022/08/04 03:00:10;;;;;;;8.65;3.30;;;;;;;23.62;54.75;101258.88;5166720;28;20876;-52
2022/08/04 03:02:57;;;;;;;7.22;3.10;;;;;;;23.61;54.75;101262.63;5167517;28;20548;-57
2022/08/04 03:05:40;;;;;;;8.40;3.58;;;;;;;23.61;54.74;101262.63;5166296;28;20483;-56
2022/08/04 03:09:01;;;;;;;11.30;3.70;;;;;;;23.60;54.71;101255.56;5165097;28;20409;-54
2022/08/04 03:12:02;;;;;;;10.07;2.95;;;;;;;23.56;54.94;101249.81;5146569;28;20503;-55
2022/08/04 03:15:20;;;;;;;10.23;3.25;;;;;;;23.57;54.85;101261.41;5153496;28;20533;-55
2022/08/04 03:19:03;;;;;;;11.80;3.25;;;;;;;23.54;55.03;101260.00;5154220;28;20422;-54
2022/08/04 03:22:36;;;;;;;5.23;2.80;;;;;;;23.52;54.89;101255.88;5146731;28;20908;-57
2022/08/04 03:25:35;;;;;;;8.90;3.80;;;;;;;23.48;55.08;101259.03;5149520;28;20747;-55
2022/08/04 03:28:36;;;;;;;5.50;3.53;;;;;;;23.49;55.18;101254.47;5160853;28;20812;-54
2022/08/04 03:32:07;;;;;;;8.70;3.85;;;;;;;23.51;55.14;101254.25;5155882;28;20467;-55
2022/08/04 03:35:00;;;;;;;7.45;3.22;;;;;;;23.51;55.13;101246.16;5123197;28;20838;-49
2022/08/04 03:38:03;;;;;;;9.05;3.83;;;;;;;23.50;55.26;101244.50;5100070;28;20611;-57
2022/08/04 03:41:10;;;;;;;13.45;3.58;;;;;;;23.50;55.25;101239.09;5163516;28;20847;-55
2022/08/04 03:44:30;;;;;;;7.63;3.67;;;;;;;23.48;55.13;101239.34;5155892;28;20429;-56
2022/08/04 03:47:58;;;;;;;8.27;3.88;;;;;;;23.51;55.26;101235.38;5125902;28;20977;-50
2022/08/04 03:54:46;;;;;;;8.13;3.95;;;;;;;23.45;55.41;101237.91;5175768;28;20939;-57
2022/08/04 03:57:52;;;;;;;7.53;3.10;;;;;;;23.43;55.27;101237.31;5113553;28;20713;-56
2022/08/04 04:00:30;;;;;;;7.07;3.10;;;;;;;23.44;55.29;101235.44;5145543;28;20774;-56
2022/08/04 04:03:40;;;;;;;9.47;4.37;;;;;;;23.43;55.46;101233.78;5156580;28;20475;-56
2022/08/04 04:06:52;;;;;;;11.02;3.45;;;;;;;23.42;55.51;101249.16;5145827;28;20839;-56
2022/08/04 04:10:07;;;;;;;8.70;3.67;;;;;;;23.40;55.42;101237.75;5150866;28;20576;-55
2022/08/04 04:13:16;;;;;;;9.32;3.50;;;;;;;23.39;55.59;101238.81;5160156;28;20754;-54
2022/08/04 04:16:13;;;;;;;6.40;3.55;;;;;;;23.40;55.50;101235.06;5168644;28;20794;-57
2022/08/04 04:19:10;;;;;;;12.30;3.53;;;;;;;23.40;55.56;101232.38;5162417;28;20752;-56
2022/08/04 04:22:17;;;;;;;9.90;4.00;;;;;;;23.42;55.74;101237.56;5151497;28;20456;-56
2022/08/04 04:25:10;;;;;;;7.95;3.15;;;;;;;23.42;55.64;101241.06;5160857;28;20910;-55
2022/08/04 04:28:10;;;;;;;5.72;3.00;;;;;;;23.16;55.73;101200.94;5160033;28;20462;-54
2022/08/04 04:30:53;;;;;;;12.45;3.58;;;;;;;23.41;55.75;101234.03;5163643;28;20479;-55
2022/08/04 04:33:39;;;;;;;9.52;2.88;;;;;;;23.43;55.84;101240.00;5160837;28;20989;-55
2022/08/04 04:36:18;;;;;;;9.73;3.58;;;;;;;23.42;55.77;101241.06;5151064;28;20898;-52
2022/08/04 04:39:07;;;;;;;6.88;3.20;;;;;;;23.43;55.67;101229.22;5159217;28;21005;-53
2022/08/04 04:42:07;;;;;;;6.03;2.97;;;;;;;23.43;55.78;101229.22;5157184;28;20810;-56
2022/08/04 04:45:08;;;;;;;5.93;3.15;;;;;;;23.44;55.85;101230.88;5156110;28;20935;-57
2022/08/04 04:47:54;;;;;;;8.00;2.25;;;;;;;23.47;55.78;101233.13;5161761;28;20466;-54
2022/08/04 04:50:39;;;;;;;8.55;3.30;;;;;;;23.47;55.94;101230.44;5158094;28;20720;-55
2022/08/04 04:53:23;;;;;;;4.95;2.15;;;;;;;23.45;55.90;101237.09;5162910;28;20690;-50
2022/08/04 04:56:05;;;;;;;7.33;2.77;;;;;;;23.52;55.89;101248.63;5166005;28;20974;-56
2022/08/04 04:58:39;;;;;;;10.85;2.67;;;;;;;23.55;56.08;101245.47;5160640;28;20451;-56
2022/08/04 05:01:45;;;;;;;8.13;3.45;;;;;;;23.58;56.16;101252.28;5156995;28;20489;-56
2022/08/04 05:04:40;;;;;;;6.63;2.50;;;;;;;23.62;56.18;101250.78;5162730;28;20451;-55
2022/08/04 05:07:49;;;;;;;6.13;2.80;;;;;;;23.66;56.08;101249.25;5157209;28;20787;-54
2022/08/04 05:10:38;;;;;;;7.57;2.45;;;;;;;23.70;56.15;101253.22;5153098;28;21168;-55
2022/08/04 05:13:31;;;;;;;10.43;3.28;;;;;;;23.73;56.22;101249.25;5152073;28;20728;-55
2022/08/04 05:16:12;;;;;;;9.20;3.05;;;;;;;23.75;56.31;101264.13;5161558;28;20411;-52
2022/08/04 05:18:54;;;;;;;9.00;3.22;;;;;;;23.77;56.39;101256.63;5153635;28;20850;-56
2022/08/04 05:21:41;;;;;;;9.93;2.70;;;;;;;23.83;56.29;101258.44;5161244;28;20712;-57
2022/08/04 05:24:19;;;;;;;6.35;2.63;;;;;;;23.86;56.38;101263.38;5159232;28;20407;-56
2022/08/04 05:26:56;;;;;;;10.82;3.20;;;;;;;23.91;56.48;101258.13;5155551;28;20419;-54
2022/08/04 05:29:34;;;;;;;7.18;2.90;;;;;;;23.99;56.45;101250.75;5154111;28;20531;-55
2022/08/04 05:32:14;;;;;;;8.20;2.60;;;;;;;24.06;56.33;101256.88;5159119;28;20429;-47
2022/08/04 05:34:56;;;;;;;10.55;3.03;;;;;;;24.11;56.29;101254.31;5159343;28;20396;-55
2022/08/04 05:37:29;;;;;;;6.82;2.10;;;;;;;24.05;56.31;101237.16;5164835;28;20427;-55
2022/08/04 05:40:06;;;;;;;8.45;2.97;;;;;;;24.24;56.37;101254.13;5163200;28;20415;-58
2022/08/04 05:42:40;;;;;;;6.03;2.30;;;;;;;24.32;56.39;101258.38;5157159;28;20415;-48
2022/08/04 05:45:14;;;;;;;7.10;2.58;;;;;;;24.41;56.25;101262.38;5160815;28;20752;-55
2022/08/04 05:47:47;;;;;;;10.02;2.60;;;;;;;24.48;56.34;101263.13;5163370;28;20411;-54
2022/08/04 05:50:22;;;;;;;7.90;2.53;;;;;;;24.57;56.26;101260.91;5150839;28;20433;-50
2022/08/04 05:52:55;;;;;;;10.85;2.80;;;;;;;24.65;56.17;101257.84;5168119;28;20505;-54
2022/08/04 05:55:28;;;;;;;9.47;2.93;;;;;;;24.75;56.05;101251.91;5149717;28;20424;-54
2022/08/04 05:58:02;;;;;;;8.45;2.25;;;;;;;24.82;56.09;101258.81;5167182;28;20423;-55
2022/08/04 06:00:37;;;;;;;10.05;3.13;;;;;;;24.92;55.91;101268.22;5164917;28;20484;-54
2022/08/04 06:03:10;;;;;;;6.13;2.60;;;;;;;25.01;55.71;101264.94;5156583;28;20729;-54
2022/08/04 06:05:44;;;;;;;11.38;2.60;;;;;;;25.11;55.84;101266.22;5162179;28;20425;-45
2022/08/04 06:08:17;;;;;;;7.13;2.67;;;;;;;25.17;55.60;101260.72;5166229;28;20812;-52
2022/08/04 06:10:50;;;;;;;11.55;2.90;;;;;;;25.30;55.45;101271.31;5164727;28;20437;-54
2022/08/04 06:13:34;;;;;;;9.15;2.33;;;;;;;25.57;55.29;101276.19;5160562;28;20419;-55
2022/08/04 06:16:07;;;;;;;12.05;2.60;;;;;;;25.84;54.92;101278.38;5160858;28;20502;-53
2022/08/04 06:18:41;;;;;;;8.98;2.13;;;;;;;26.07;54.71;101280.97;5154028;28;20504;-54
2022/08/04 06:21:16;;;;;;;13.30;2.57;;;;;;;26.32;54.39;101279.78;5156670;28;20469;-53
2022/08/04 06:23:49;;;;;;;7.40;2.25;;;;;;;26.67;54.07;101279.63;5152398;28;20867;-55
2022/08/04 06:26:23;;;;;;;5.18;1.90;;;;;;;27.00;53.37;101278.75;5168484;28;20419;-50
2022/08/04 06:28:56;;;;;;;7.20;2.25;;;;;;;27.26;53.13;101271.03;5159706;28;20837;-55
2022/08/04 06:31:44;;;;;;;8.80;2.72;;;;;;;27.16;52.83;101227.50;5169542;28;20952;-55
2022/08/04 06:34:17;;;;;;;11.23;2.53;;;;;;;27.55;52.55;101268.97;5166649;28;20414;-54
2022/08/04 06:36:51;;;;;;;10.60;2.30;;;;;;;27.61;52.43;101278.00;5172083;28;20532;-52
2022/08/04 06:39:25;;;;;;;8.07;2.35;;;;;;;27.88;51.98;101278.88;5159020;28;20879;-55
2022/08/04 06:41:58;;;;;;;7.82;2.53;;;;;;;28.18;51.60;101277.53;5163887;28;20436;-54
2022/08/04 06:44:31;;;;;;;6.15;2.30;;;;;;;28.64;51.10;101283.44;5162298;28;20418;-52
2022/08/04 06:47:05;;;;;;;8.88;2.10;;;;;;;29.34;50.14;101285.00;5157496;28;20749;-54
2022/08/04 06:49:38;;;;;;;7.38;1.95;;;;;;;30.05;49.25;101286.38;5162802;28;22535;-55
2022/08/04 06:52:16;;;;;;;8.80;2.50;;;;;;;30.41;48.67;101289.97;5163531;28;20450;-56
2022/08/04 06:54:50;;;;;;;9.45;2.15;;;;;;;30.70;48.07;101300.34;5163589;28;20542;-55
2022/08/04 06:57:26;;;;;;;7.45;1.73;;;;;;;30.86;47.57;101282.91;5159180;28;20420;-53
2022/08/04 07:00:01;;;;;;;4.83;1.87;;;;;;;30.95;47.20;101285.91;5155662;28;20752;-55
2022/08/04 07:02:42;;;;;;;3.77;1.70;;;;;;;30.88;47.21;101283.47;5164420;28;20815;-55
2022/08/04 07:05:15;;;;;;;7.45;1.85;;;;;;;30.95;46.63;101281.25;5167383;28;20846;-54
2022/08/04 07:07:50;;;;;;;11.18;2.30;;;;;;;31.63;45.79;101275.31;5169221;28;20420;-54
2022/08/04 07:10:24;;;;;;;8.40;1.70;;;;;;;32.42;44.83;101286.31;5163027;28;20731;-52
2022/08/04 07:12:57;;;;;;;5.18;2.20;;;;;;;32.84;44.01;101291.16;5175296;28;20742;-53
2022/08/04 07:15:30;;;;;;;4.47;1.43;;;;;;;33.09;43.90;101283.03;5170534;28;20405;-52
2022/08/04 07:18:03;;;;;;;9.55;2.00;;;;;;;33.28;43.52;101281.16;5182606;28;21211;-53
2022/08/04 07:20:35;;;;;;;5.88;1.77;;;;;;;33.51;43.10;101294.03;5177282;28;20436;-52
2022/08/04 07:23:10;;;;;;;4.25;1.80;;;;;;;33.75;42.61;101296.72;5176276;28;20743;-53
2022/08/04 07:25:43;;;;;;;6.00;1.80;;;;;;;34.07;42.19;101308.94;5174785;28;20953;-51
2022/08/04 07:28:16;;;;;;;5.00;1.15;;;;;;;34.38;41.59;101308.47;5183008;28;20963;-53
2022/08/04 07:30:49;;;;;;;12.10;2.08;;;;;;;35.09;40.65;101317.41;5181039;28;20856;-50
2022/08/04 07:33:22;;;;;;;2.90;1.10;;;;;;;35.66;39.95;101314.38;5175623;28;20858;-52
2022/08/04 07:35:57;;;;;;;4.82;1.50;;;;;;;36.09;39.26;101300.25;5174074;28;20419;-53
2022/08/04 07:38:30;;;;;;;6.90;1.70;;;;;;;36.58;38.74;101310.34;5174915;28;20679;-54
2022/08/04 07:41:04;;;;;;;7.13;1.73;;;;;;;37.05;38.01;101294.25;5182755;28;20433;-56
2022/08/04 07:43:37;;;;;;;6.18;1.10;;;;;;;37.57;37.43;101305.47;5173881;28;20713;-54
2022/08/04 07:46:11;;;;;;;13.13;2.40;;;;;;;37.97;36.95;101307.28;5157220;28;20421;-53
2022/08/04 07:48:43;;;;;;;6.90;1.20;;;;;;;38.08;36.88;101316.06;5178705;28;20540;-50
2022/08/04 07:51:16;;;;;;;5.30;1.55;;;;;;;38.14;36.61;101314.75;5185282;28;20879;-52
2022/08/04 07:53:50;;;;;;;5.20;1.20;;;;;;;38.33;36.28;101312.47;5170750;28;20873;-52
2022/08/04 07:56:23;;;;;;;6.78;1.33;;;;;;;38.49;36.10;101313.59;5183242;28;20734;-50
2022/08/04 07:58:55;;;;;;;4.40;1.23;;;;;;;38.67;35.68;101319.09;5180904;28;20893;-53
2022/08/04 08:01:28;;;;;;;3.80;1.20;;;;;;;38.86;35.43;101321.50;5168333;28;20539;-48
2022/08/04 08:04:01;;;;;;;7.15;1.23;;;;;;;39.02;35.15;101324.53;5176991;28;20413;-52
2022/08/04 08:06:36;;;;;;;7.38;1.35;;;;;;;38.98;35.23;101322.41;5179230;28;20829;-50
2022/08/04 08:09:13;;;;;;;3.47;1.00;;;;;;;38.98;35.08;101325.19;5174959;28;20747;-56
2022/08/04 08:11:48;;;;;;;6.60;1.08;;;;;;;39.05;34.77;101324.66;5165321;28;20419;-53
2022/08/04 08:14:20;;;;;;;3.95;1.50;;;;;;;39.16;34.81;101331.44;5180651;28;20428;-55
2022/08/04 08:16:53;;;;;;;3.53;1.02;;;;;;;39.22;34.64;101329.31;5176617;28;20760;-53
2022/08/04 08:19:25;;;;;;;7.22;1.33;;;;;;;39.28;34.53;101321.66;5180616;28;20905;-52
2022/08/04 08:21:58;;;;;;;2.92;1.30;;;;;;;39.27;34.45;101328.31;5163846;28;20747;-55
2022/08/04 08:24:36;;;;;;;4.28;1.08;;;;;;;39.27;34.40;101336.59;5172758;28;20450;-50
2022/08/04 08:27:08;;;;;;;3.38;0.93;;;;;;;39.29;34.09;101329.63;5159771;28;20427;-52
2022/08/04 08:29:41;;;;;;;2.88;1.08;;;;;;;38.92;34.27;101326.50;5162985;28;20484;-48
2022/08/04 08:32:14;;;;;;;2.43;0.90;;;;;;;38.25;34.77;101324.31;5155359;28;20418;-48
2022/08/04 08:34:47;;;;;;;5.00;1.50;;;;;;;37.61;35.36;101328.47;5177518;28;20874;-51
2022/08/04 08:37:32;;;;;;;5.60;1.15;;;;;;;36.80;35.79;101327.97;5152041;28;20736;-52
2022/08/04 08:40:28;;;;;;;3.38;1.30;;;;;;;36.12;36.13;101322.44;5169800;28;20997;-50
2022/08/04 08:43:30;;;;;;;3.28;0.60;;;;;;;35.70;36.52;101332.69;5169132;28;20438;-55
2022/08/04 08:46:31;;;;;;;3.97;1.15;;;;;;;35.27;36.57;101338.47;5155166;28;20958;-50
2022/08/04 08:49:45;;;;;;;3.80;0.95;;;;;;;34.85;36.69;101334.84;5172934;28;20408;-47
2022/08/04 08:52:32;;;;;;;3.72;1.10;;;;;;;34.24;36.61;101335.81;5163378;28;20734;-48
2022/08/04 08:55:23;;;;;;;2.38;1.05;;;;;;;33.99;36.74;101339.69;5179338;28;20410;-48
2022/08/04 08:58:15;;;;;;;3.33;0.82;;;;;;;33.60;36.98;101337.19;5181690;28;20754;-48
2022/08/04 09:00:55;;;;;;;5.63;1.48;;;;;;;33.32;36.73;101331.47;5172058;28;20733;-47
2022/08/04 09:03:49;;;;;;;2.55;1.23;;;;;;;33.16;36.60;101332.75;5164624;28;20875;-48
2022/08/04 09:06:50;;;;;;;2.35;0.88;;;;;;;32.95;36.46;101334.84;5174202;28;20411;-49
2022/08/04 09:09:56;;;;;;;2.78;1.15;;;;;;;32.73;36.66;101340.78;5166662;28;20792;-47
2022/08/04 09:12:37;;;;;;;2.75;1.00;;;;;;;32.45;36.39;101340.44;5170684;28;20449;-48
2022/08/04 09:15:15;;;;;;;3.22;0.90;;;;;;;32.11;36.68;101352.13;5174033;28;20790;-47
2022/08/04 09:17:54;;;;;;;3.20;1.20;;;;;;;31.96;36.46;101341.25;5170784;28;20434;-50
2022/08/04 09:20:35;;;;;;;3.75;0.98;;;;;;;31.83;36.61;101344.59;5179187;28;20417;-48
2022/08/04 09:23:22;;;;;;;5.38;0.90;;;;;;;31.81;36.34;101336.69;5171731;28;20769;-47
2022/08/04 09:26:03;;;;;;;3.50;0.90;;;;;;;31.91;35.91;101346.78;5177534;28;20748;-47
2022/08/04 09:28:48;;;;;;;3.38;0.85;;;;;;;31.79;35.99;101352.53;5157899;28;20433;-50
2022/08/04 09:31:24;;;;;;;5.65;1.05;;;;;;;31.70;36.12;101363.22;5176567;28;20415;-48
2022/08/04 09:34:09;;;;;;;3.03;0.98;;;;;;;31.60;35.92;101362.44;5178441;28;20432;-51
2022/08/04 09:36:49;;;;;;;2.10;1.10;;;;;;;31.54;35.98;101358.91;5174505;28;20932;-48
2022/08/04 09:39:29;;;;;;;1.20;0.90;;;;;;;31.57;35.95;101363.81;5177266;28;20817;-51
2022/08/04 09:42:11;;;;;;;5.63;1.30;;;;;;;31.51;35.96;101351.28;5182588;28;20876;-51
2022/08/04 09:44:56;;;;;;;4.87;1.33;;;;;;;31.45;35.90;101355.13;5175579;28;20417;-47
2022/08/04 09:47:35;;;;;;;3.47;1.02;;;;;;;31.39;35.59;101356.22;5181126;28;20443;-51
2022/08/04 09:50:23;;;;;;;2.37;0.83;;;;;;;31.10;35.83;101364.16;5181242;28;20714;-49
2022/08/04 09:53:03;;;;;;;1.73;1.02;;;;;;;30.77;36.13;101372.63;5171633;28;20437;-48
2022/08/04 09:55:48;;;;;;;3.95;0.95;;;;;;;30.47;36.38;101350.75;5181656;28;20401;-55
2022/08/04 09:58:36;;;;;;;4.22;1.50;;;;;;;30.51;36.11;101363.59;5180509;28;20419;-47
2022/08/04 10:01:15;;;;;;;4.88;1.30;;;;;;;30.52;36.18;101380.75;5184293;28;20409;-46
2022/08/04 10:03:52;;;;;;;3.80;1.00;;;;;;;30.54;35.83;101378.59;5184902;28;20904;-47
2022/08/04 10:06:56;;;;;;;6.43;1.00;;;;;;;30.37;36.08;101375.28;5183240;28;20433;-50
2022/08/04 10:09:50;;;;;;;3.10;1.30;;;;;;;30.22;36.28;101389.69;5155960;28;20735;-51
2022/08/04 10:12:35;;;;;;;3.25;0.98;;;;;;;30.17;36.07;101390.47;5167258;28;20730;-52
2022/08/04 10:15:14;;;;;;;4.97;1.20;;;;;;;30.11;36.04;101391.53;5171969;28;20769;-51
2022/08/04 10:18:07;;;;;;;3.92;1.42;;;;;;;30.00;36.04;101385.22;5168003;28;20915;-53
2022/08/04 10:20:53;;;;;;;4.47;1.30;;;;;;;30.06;35.97;101395.03;5177198;28;20969;-52
2022/08/04 10:23:43;;;;;;;5.15;1.00;;;;;;;30.19;35.63;101393.72;5183979;28;21098;-49
2022/08/04 10:26:33;;;;;;;3.10;1.20;;;;;;;30.36;35.29;101401.72;5173097;28;20861;-53
2022/08/04 10:29:10;;;;;;;4.68;1.60;;;;;;;30.46;35.15;101384.56;5184826;28;20846;-49
2022/08/04 10:31:52;;;;;;;2.80;1.27;;;;;;;30.51;34.81;101390.03;5162085;28;20423;-48
2022/08/04 10:34:31;;;;;;;2.17;0.70;;;;;;;30.54;34.71;101395.75;5182733;28;20512;-52
2022/08/04 10:37:13;;;;;;;3.28;0.90;;;;;;;30.51;34.85;101390.03;5185760;28;20586;-51
2022/08/04 10:43:02;;;;;;;4.05;1.65;;;;;;;30.78;34.23;101396.09;5172492;28;20916;-48
2022/08/04 10:45:43;;;;;;;2.78;1.00;;;;;;;30.93;34.29;101405.34;5168626;28;20854;-49
2022/08/04 10:48:23;;;;;;;5.43;1.33;;;;;;;31.08;33.86;101399.91;5167963;28;20632;-47
2022/08/04 10:51:05;;;;;;;3.10;1.10;;;;;;;31.28;33.85;101403.69;5171477;28;20855;-47
2022/08/04 10:53:40;;;;;;;2.33;1.13;;;;;;;31.46;33.63;101405.88;5165613;28;20826;-49
2022/08/04 10:56:19;;;;;;;3.67;1.13;;;;;;;31.54;33.58;101408.06;5162930;28;20412;-49
2022/08/04 10:58:54;;;;;;;3.85;1.95;;;;;;;31.59;33.36;101418.13;5166118;28;20421;-49
2022/08/04 11:01:33;;;;;;;2.42;1.10;;;;;;;31.57;33.05;101421.16;5164412;28;20427;-48
2022/08/04 11:04:15;;;;;;;3.90;1.10;;;;;;;31.61;32.93;101419.50;5177812;28;20432;-47
2022/08/04 11:06:49;;;;;;;10.93;7.72;;;;;;;31.82;32.69;101430.38;5182090;28;20413;-49
2022/08/04 11:09:23;;;;;;;2.50;1.30;;;;;;;32.07;32.72;101433.03;5183608;28;20417;-48
2022/08/04 11:12:01;;;;;;;3.70;1.23;;;;;;;32.31;32.30;101435.09;5181890;28;20409;-47
2022/08/04 11:14:41;;;;;;;5.55;1.58;;;;;;;32.45;32.04;101419.72;5159961;28;20415;-49
2022/08/04 11:17:21;;;;;;;4.35;1.42;;;;;;;32.55;31.83;101418.84;5163504;28;20403;-49
2022/08/04 11:20:03;;;;;;;2.67;0.87;;;;;;;32.69;31.71;101421.78;5166384;28;20771;-49
2022/08/04 11:22:44;;;;;;;1.80;0.70;;;;;;;32.79;31.51;101427.16;5164713;28;20941;-49
2022/08/04 11:25:21;;;;;;;4.65;1.25;;;;;;;32.77;31.44;101437.59;5176186;28;20800;-49
2022/08/04 11:28:02;;;;;;;6.35;1.27;;;;;;;32.87;31.40;101434.78;5181048;28;20425;-50
2022/08/04 11:30:46;;;;;;;3.75;1.33;;;;;;;32.91;31.29;101446.78;5185121;28;20952;-52
2022/08/04 11:33:29;;;;;;;5.50;0.98;;;;;;;32.94;31.13;101424.31;5182259;28;20414;-49
2022/08/04 11:36:08;;;;;;;2.15;1.13;;;;;;;32.93;31.06;101441.03;5182165;28;20421;-52
2022/08/04 11:38:53;;;;;;;5.30;1.10;;;;;;;32.86;31.28;101444.09;5178515;28;20755;-51
2022/08/04 11:41:41;;;;;;;4.05;1.38;;;;;;;32.86;30.84;101438.63;5182878;28;21160;-43
2022/08/04 11:44:26;;;;;;;3.28;1.20;;;;;;;32.87;30.66;101445.72;5174848;28;20755;-48
2022/08/04 11:47:04;;;;;;;4.60;1.25;;;;;;;32.74;30.80;101447.19;5174551;28;20433;-48
2022/08/04 11:49:46;;;;;;;2.97;1.20;;;;;;;32.52;31.18;101447.59;5180890;28;21075;-47
2022/08/04 11:52:20;;;;;;;4.70;1.50;;;;;;;32.22;31.69;101450.47;5179405;28;20413;-47
2022/08/04 11:54:55;;;;;;;4.28;1.17;;;;;;;31.94;31.33;101422.72;5180639;28;20849;-48
2022/08/04 11:57:28;;;;;;;4.30;1.50;;;;;;;32.05;31.76;101457.06;5179599;28;20424;-48
2022/08/04 12:00:03;;;;;;;2.58;1.20;;;;;;;31.99;31.54;101458.19;5179227;28;20421;-49
2022/08/04 12:03:18;;;;;;;4.13;1.50;;;;;;;31.93;31.48;101453.81;5184393;28;20414;-47
2022/08/04 12:06:09;;;;;;;4.10;1.27;;;;;;;32.05;31.49;101461.72;5166443;28;20962;-49
2022/08/04 12:08:58;;;;;;;4.60;1.20;;;;;;;32.25;31.10;101466.31;5164396;28;20472;-48
2022/08/04 12:11:50;;;;;;;3.65;1.70;;;;;;;32.33;30.68;101473.91;5174060;28;20768;-47
2022/08/04 12:14:44;;;;;;;4.70;1.50;;;;;;;32.38;30.95;101471.16;5179688;28;20516;-51
2022/08/04 12:17:27;;;;;;;5.40;1.13;;;;;;;32.52;30.54;101466.75;5181175;28;20924;-48
2022/08/04 12:20:04;;;;;;;4.60;1.10;;;;;;;32.45;30.85;101460.75;5175580;28;20431;-51
2022/08/04 12:22:48;;;;;;;6.28;1.27;;;;;;;32.46;30.69;101472.50;5171106;28;20871;-48
2022/08/04 12:25:28;;;;;;;4.35;1.20;;;;;;;32.55;30.34;101459.84;5170955;28;20918;-46
2022/08/04 12:28:11;;;;;;;4.72;1.30;;;;;;;32.71;30.48;101453.22;5177128;28;20412;-47
2022/08/04 12:30:50;;;;;;;2.85;1.10;;;;;;;32.87;29.95;101453.91;5180158;28;20410;-46
2022/08/04 12:33:31;;;;;;;2.67;1.30;;;;;;;33.00;30.10;101445.09;5172534;28;20497;-48
2022/08/04 12:36:19;;;;;;;3.50;1.20;;;;;;;33.15;29.83;101451.53;5169616;28;22938;-48
2022/08/04 12:39:02;;;;;;;3.20;1.10;;;;;;;33.35;29.65;101451.34;5164283;28;20891;-52
2022/08/04 12:41:45;;;;;;;3.33;1.17;;;;;;;33.40;29.36;101454.03;5175115;28;20405;-47
2022/08/04 12:44:19;;;;;;;5.00;1.10;;;;;;;33.46;29.27;101452.88;5174838;28;20453;-47
2022/08/04 12:46:53;;;;;;;3.25;1.17;;;;;;;33.56;29.24;101451.19;5175991;28;20893;-47
2022/08/04 12:49:25;;;;;;;5.80;0.93;;;;;;;33.47;29.35;101451.78;5168355;28;20439;-46